Terminal Aerodrome Forecast
Issued by NWS Cleveland, OH

Home | Current Version | Previous Version | Text Only | Print | Product List | Glossary On
Versions: 1 2 3 4 5 6 7 8 9 10 11 12 13 14 15 16 17 18 19 20 21 22 23 24 25 26 27 28 29 30 31 32 33 34
265
FTUS41 KCLE 241120
TAFYNG
TAF
KYNG 241120Z 2412/2512 20004KT P6SM OVC200
     FM242000 25006KT P6SM OVC050
     FM250400 01009KT 3SM -SHRA BR OVC015=

USA.gov is the U.S. government's official web portal to all federal, state and local government web resources and services.